Wednesday, January 17, 2018, 9:51 AM EST
Back to Local

KPVD, Providence Green State Airport

Location: Warwick, RI, United States Lat: 41.733
Local Time: 9:51 AM EST (14:51 GMT) Lon: -71.433
Time Zone: US/Eastern Elev: 55 ft

Show me the last for .
Show Decoded

2018-01-17 08:51 METAR KPVD 171351Z 04006KT 1SM R05/4500V5500FT -SN BR BKN006 OVC013 01/01 A3027
                 RMK AO2 SFC VIS 1 1/4 SLP251 P0005 T00060006 =
2018-01-17 08:09 METAR KPVD 171309Z 02004KT 1SM R05/4500V6000FT -SN BR BKN005 OVC012 01/01 A3029
                 RMK AO2 SFC VIS 1 1/4 P0002 T00060006 =
2018-01-17 07:51 METAR KPVD 171251Z 03005KT 1SM R05/4500V6000FT -SN BR BKN004 OVC016 01/01 A3029
                 RMK AO2 SFC VIS 1 1/4 SLP256 P0004 T00060006 =
2018-01-17 07:49 METAR KPVD 171249Z 04004KT 1SM R05/4500V6000FT -SN BR BKN004 OVC016 01/01 A3029
                 RMK AO2 SFC VIS 1 1/4 P0004 =
2018-01-17 07:35 METAR KPVD 171235Z 03004KT 1SM R05/P6000FT -SN BR BKN006 OVC020 01/01 A3029 RMK
                 AO2 SFC VIS 1 1/4 P0003 T00060006 =
2018-01-17 06:51 METAR KPVD 171151Z 01005KT 1SM R05/P6000FT -SN BR SCT006 OVC022 01/01 A3030 RMK
                 AO2 SFC VIS 1 1/2 SNB1054 SLP260 P0001 60002 70002 T00060006 10011 20006 56010 =
2018-01-17 06:49 METAR KPVD 171149Z 01005KT 1SM R05/P6000FT -SN BR SCT006 OVC022 01/01 A3030 RMK
                 AO2 SFC VIS 1 1/4 SNB1054 P0001 =
2018-01-17 06:37 METAR KPVD 171137Z 02006KT 1 1/2SM -SN BR BKN006 OVC022 01/01 A3030 RMK AO2
                 SNB1054 P0000 T00060006 =
2018-01-17 06:30 METAR KPVD 171130Z 02005KT 2SM -SN BR BKN006 OVC020 01/01 A3030 RMK AO2 SNB1054
                 P0000 T00060006 =
2018-01-17 05:51 METAR KPVD 171051Z 05004KT 10SM OVC006 01/01 A3030 RMK AO2 SNE33 SLP260 P0000
                 T00060006 =
2018-01-17 05:01 METAR KPVD 171001Z 07004KT 3SM -SN BR OVC008 01/01 A3032 RMK AO2 P0000 T00060006
                 =
2018-01-17 04:51 METAR KPVD 170951Z 07004KT 2 1/2SM -SN BR OVC008 01/00 A3033 RMK AO2 SNB25
                 SLP270 P0001 T00060000 =
2018-01-17 03:51 METAR KPVD 170851Z 11005KT 10SM OVC008 01/00 A3034 RMK AO2 SLP275 T00110000
                 58013 =
2018-01-17 03:29 METAR KPVD 170829Z 11005KT 10SM OVC009 01/00 A3035 RMK AO2 T00110000 =
2018-01-17 02:51 METAR KPVD 170751Z 10006KT 10SM BKN012 OVC019 01/M01 A3037 RMK AO2 SLP282
                 T00111006 =
2018-01-17 02:39 METAR KPVD 170739Z 10005KT 10SM BKN012 OVC019 01/M01 A3037 RMK AO2 T00111011 =
2018-01-17 01:51 METAR KPVD 170651Z 08004KT 10SM OVC021 01/M01 A3038 RMK AO2 SLP286 T00111011 =
2018-01-17 01:33 METAR KPVD 170633Z 11003KT 10SM BKN021 OVC032 01/M01 A3038 RMK AO2 T00111011 =
2018-01-17 00:51 METAR KPVD 170551Z 11004KT 10SM OVC032 01/M01 A3038 RMK AO2 SLP288 60000
                 T00061006 10011 20006 58021 =
2018-01-16 23:51 METAR KPVD 170451Z 15004KT 10SM OVC031 01/M01 A3041 RMK AO2 SNE17 SLP296 LAST
                 P0000 T00111006 400221067 =
2018-01-16 22:59 METAR KPVD 170359Z 14004KT 9SM -SN SCT028 BKN035 OVC110 01/M01 A3042 RMK AO2
                 P0000 T00061006 =
2018-01-16 22:51 METAR KPVD 170351Z 15004KT 9SM -SN BKN028 BKN035 OVC110 01/M01 A3042 RMK AO2
                 SNB27 SLP302 P0000 T00061006 =
2018-01-16 21:51 METAR KPVD 170251Z 16005KT 9SM OVC028 01/M01 A3044 RMK AO2 SNE48 SLP309 P0000
                 60000 T00111006 58008 =
2018-01-16 20:51 METAR KPVD 170151Z 14004KT 9SM -SN OVC024 01/M01 A3045 RMK AO2 SLP311 P0000
                 T00111006 =
2018-01-16 19:51 METAR KPVD 170051Z 16006KT 10SM -SN OVC029 01/M01 A3046 RMK AO2 SNB51 SLP316
                 P0000 T00111006 =
2018-01-16 19:21 METAR KPVD 170021Z 16007KT 10SM OVC029 01/M01 A3046 RMK AO2 T00111006 =
2018-01-16 18:51 METAR KPVD 162351Z 15005KT 10SM OVC032 01/M01 A3047 RMK AO2 SLP317 T00061006
                 10017 20000 53003 =
2018-01-16 17:58 METAR KPVD 162258Z 15006KT 10SM BKN031 OVC300 00/M01 A3046 =
2018-01-16 17:51 METAR KPVD 162251Z 16006KT 10SM BKN029 BKN075 BKN300 00/M01 A3046 RMK AO2 SLP315
                 T00001011 =
2018-01-16 16:51 METAR KPVD 162151Z 16006KT 10SM BKN029 BKN075 BKN300 01/M02 A3046 RMK AO2 SLP314
                 T00061017 =
2018-01-16 16:35 METAR KPVD 162135Z 15006KT 10SM BKN029 BKN075 BKN300 01/M02 A3046 RMK AO2
                 T00061017 =
2018-01-16 15:51 METAR KPVD 162051Z 16008KT 10SM SCT030 BKN075 BKN300 01/M02 A3046 RMK AO2 SLP314
                 T00111017 56004 =
2018-01-16 14:51 METAR KPVD 161951Z 14007KT 10SM FEW030 BKN080 BKN300 02/M02 A3046 RMK AO2 SLP314
                 T00171022 =
2018-01-16 13:51 METAR KPVD 161851Z 15006KT 10SM FEW030 BKN085 BKN300 02/M03 A3046 RMK AO2 SLP313
                 T00171028 =
2018-01-16 12:51 METAR KPVD 161751Z 15008KT 10SM FEW034 BKN090 BKN300 02/M04 A3047 RMK AO2 SLP318
                 T00171044 10022 21067 56027 =
2018-01-16 11:51 METAR KPVD 161651Z VRB04KT 10SM BKN090 BKN300 02/M06 A3049 RMK AO2 SLP325
                 T00171061 =
2018-01-16 10:51 METAR KPVD 161551Z 17003KT 10SM BKN040 BKN095 BKN300 M01/M07 A3052 RMK AO2
                 SLP336 T10061072 =

Support USWX by starting your Amazon purchase here.